sensor_id;sensor_type;location;lat;lon;timestamp;P1;durP1;ratioP1;P2;durP2;ratioP2
10902;SDS011;5504;47.312;11.060;2022-10-17T00:01:09;5.20;;;4.37;;
10902;SDS011;5504;47.312;11.060;2022-10-17T00:03:36;9.37;;;4.50;;
10902;SDS011;5504;47.312;11.060;2022-10-17T00:06:06;8.43;;;4.50;;
10902;SDS011;5504;47.312;11.060;2022-10-17T00:08:34;6.57;;;4.67;;
10902;SDS011;5504;47.312;11.060;2022-10-17T00:11:02;7.50;;;4.77;;
10902;SDS011;5504;47.312;11.060;2022-10-17T00:13:30;5.60;;;4.37;;
10902;SDS011;5504;47.312;11.060;2022-10-17T00:15:56;5.77;;;4.23;;
10902;SDS011;5504;47.312;11.060;2022-10-17T00:18:22;6.67;;;4.97;;
10902;SDS011;5504;47.312;11.060;2022-10-17T00:20:48;7.67;;;4.80;;
10902;SDS011;5504;47.312;11.060;2022-10-17T00:23:14;6.67;;;4.50;;
10902;SDS011;5504;47.312;11.060;2022-10-17T00:25:40;4.93;;;4.43;;
10902;SDS011;5504;47.312;11.060;2022-10-17T00:28:09;6.03;;;5.00;;
10902;SDS011;5504;47.312;11.060;2022-10-17T00:30:36;5.73;;;4.30;;
10902;SDS011;5504;47.312;11.060;2022-10-17T00:33:02;5.80;;;4.43;;
10902;SDS011;5504;47.312;11.060;2022-10-17T00:35:27;5.87;;;4.43;;
10902;SDS011;5504;47.312;11.060;2022-10-17T00:37:53;6.50;;;5.07;;
10902;SDS011;5504;47.312;11.060;2022-10-17T00:40:19;6.47;;;4.67;;
10902;SDS011;5504;47.312;11.060;2022-10-17T00:42:45;5.60;;;4.80;;
10902;SDS011;5504;47.312;11.060;2022-10-17T00:47:49;6.47;;;4.47;;
10902;SDS011;5504;47.312;11.060;2022-10-17T00:50:18;5.70;;;4.40;;
10902;SDS011;5504;47.312;11.060;2022-10-17T00:52:44;5.97;;;4.33;;
10902;SDS011;5504;47.312;11.060;2022-10-17T00:55:27;6.60;;;4.60;;
10902;SDS011;5504;47.312;11.060;2022-10-17T00:57:57;5.83;;;4.67;;
10902;SDS011;5504;47.312;11.060;2022-10-17T01:00:27;6.73;;;4.90;;
10902;SDS011;5504;47.312;11.060;2022-10-17T01:02:52;5.93;;;5.03;;
10902;SDS011;5504;47.312;11.060;2022-10-17T01:05:18;7.40;;;4.60;;
10902;SDS011;5504;47.312;11.060;2022-10-17T01:07:45;6.60;;;4.80;;
10902;SDS011;5504;47.312;11.060;2022-10-17T01:10:12;6.53;;;5.07;;
10902;SDS011;5504;47.312;11.060;2022-10-17T01:12:47;8.30;;;4.90;;
10902;SDS011;5504;47.312;11.060;2022-10-17T01:18:12;7.57;;;4.90;;
10902;SDS011;5504;47.312;11.060;2022-10-17T01:29:42;7.30;;;5.33;;
10902;SDS011;5504;47.312;11.060;2022-10-17T01:35:50;7.17;;;5.10;;
10902;SDS011;5504;47.312;11.060;2022-10-17T01:38:23;8.73;;;5.30;;
10902;SDS011;5504;47.312;11.060;2022-10-17T01:41:18;7.53;;;4.97;;
10902;SDS011;5504;47.312;11.060;2022-10-17T01:43:55;7.27;;;5.23;;
10902;SDS011;5504;47.312;11.060;2022-10-17T01:46:48;5.60;;;4.80;;
10902;SDS011;5504;47.312;11.060;2022-10-17T01:49:14;6.07;;;4.87;;
10902;SDS011;5504;47.312;11.060;2022-10-17T01:51:51;9.17;;;5.50;;
10902;SDS011;5504;47.312;11.060;2022-10-17T01:57:00;6.70;;;4.80;;
10902;SDS011;5504;47.312;11.060;2022-10-17T01:59:33;6.20;;;5.03;;
10902;SDS011;5504;47.312;11.060;2022-10-17T02:02:05;5.53;;;4.93;;
10902;SDS011;5504;47.312;11.060;2022-10-17T02:04:32;6.30;;;5.10;;
10902;SDS011;5504;47.312;11.060;2022-10-17T02:07:09;7.63;;;5.07;;
10902;SDS011;5504;47.312;11.060;2022-10-17T02:09:36;5.73;;;5.10;;
10902;SDS011;5504;47.312;11.060;2022-10-17T02:12:51;7.97;;;4.73;;
10902;SDS011;5504;47.312;11.060;2022-10-17T02:21:01;5.47;;;4.97;;
10902;SDS011;5504;47.312;11.060;2022-10-17T02:26:10;6.50;;;5.27;;
10902;SDS011;5504;47.312;11.060;2022-10-17T02:31:15;5.63;;;5.03;;
10902;SDS011;5504;47.312;11.060;2022-10-17T02:33:55;8.50;;;5.80;;
10902;SDS011;5504;47.312;11.060;2022-10-17T02:36:26;8.83;;;5.10;;
10902;SDS011;5504;47.312;11.060;2022-10-17T02:38:55;7.23;;;5.57;;
10902;SDS011;5504;47.312;11.060;2022-10-17T02:41:22;6.93;;;5.63;;
10902;SDS011;5504;47.312;11.060;2022-10-17T02:43:49;7.60;;;5.50;;
10902;SDS011;5504;47.312;11.060;2022-10-17T02:46:17;7.60;;;5.57;;
10902;SDS011;5504;47.312;11.060;2022-10-17T02:48:49;8.10;;;5.30;;
10902;SDS011;5504;47.312;11.060;2022-10-17T02:51:27;6.10;;;5.20;;
10902;SDS011;5504;47.312;11.060;2022-10-17T02:56:41;6.47;;;5.20;;
10902;SDS011;5504;47.312;11.060;2022-10-17T02:59:13;8.00;;;5.60;;
10902;SDS011;5504;47.312;11.060;2022-10-17T03:01:41;8.10;;;5.30;;
10902;SDS011;5504;47.312;11.060;2022-10-17T03:04:09;7.63;;;5.67;;
10902;SDS011;5504;47.312;11.060;2022-10-17T03:06:37;9.30;;;5.73;;
10902;SDS011;5504;47.312;11.060;2022-10-17T03:09:03;8.13;;;5.97;;
10902;SDS011;5504;47.312;11.060;2022-10-17T03:11:29;6.17;;;5.47;;
10902;SDS011;5504;47.312;11.060;2022-10-17T03:13:55;6.73;;;5.60;;
10902;SDS011;5504;47.312;11.060;2022-10-17T03:16:20;9.47;;;6.00;;
10902;SDS011;5504;47.312;11.060;2022-10-17T03:18:46;6.50;;;5.43;;
10902;SDS011;5504;47.312;11.060;2022-10-17T03:21:12;8.23;;;5.63;;
10902;SDS011;5504;47.312;11.060;2022-10-17T03:23:38;7.83;;;6.03;;
10902;SDS011;5504;47.312;11.060;2022-10-17T03:26:04;6.90;;;5.30;;
10902;SDS011;5504;47.312;11.060;2022-10-17T03:28:31;5.80;;;4.80;;
10902;SDS011;5504;47.312;11.060;2022-10-17T03:30:57;6.93;;;5.53;;
10902;SDS011;5504;47.312;11.060;2022-10-17T03:33:23;6.07;;;5.33;;
10902;SDS011;5504;47.312;11.060;2022-10-17T03:35:48;8.83;;;5.37;;
10902;SDS011;5504;47.312;11.060;2022-10-17T03:38:14;8.73;;;5.97;;
10902;SDS011;5504;47.312;11.060;2022-10-17T03:40:40;7.07;;;4.90;;
10902;SDS011;5504;47.312;11.060;2022-10-17T03:43:05;8.73;;;5.57;;
10902;SDS011;5504;47.312;11.060;2022-10-17T03:45:31;6.27;;;5.30;;
10902;SDS011;5504;47.312;11.060;2022-10-17T03:47:58;7.50;;;5.83;;
10902;SDS011;5504;47.312;11.060;2022-10-17T03:50:23;7.10;;;5.63;;
10902;SDS011;5504;47.312;11.060;2022-10-17T03:52:49;8.23;;;5.73;;
10902;SDS011;5504;47.312;11.060;2022-10-17T03:55:15;6.67;;;5.50;;
10902;SDS011;5504;47.312;11.060;2022-10-17T03:57:42;7.23;;;5.53;;
10902;SDS011;5504;47.312;11.060;2022-10-17T04:00:07;8.33;;;6.17;;
10902;SDS011;5504;47.312;11.060;2022-10-17T04:02:34;8.47;;;5.57;;
10902;SDS011;5504;47.312;11.060;2022-10-17T04:05:00;6.27;;;5.47;;
10902;SDS011;5504;47.312;11.060;2022-10-17T04:07:26;6.53;;;5.57;;
10902;SDS011;5504;47.312;11.060;2022-10-17T04:09:52;6.67;;;5.50;;
10902;SDS011;5504;47.312;11.060;2022-10-17T04:12:17;7.53;;;5.93;;
10902;SDS011;5504;47.312;11.060;2022-10-17T04:14:43;6.67;;;5.43;;
10902;SDS011;5504;47.312;11.060;2022-10-17T04:17:09;9.07;;;5.90;;
10902;SDS011;5504;47.312;11.060;2022-10-17T04:19:34;7.30;;;5.97;;
10902;SDS011;5504;47.312;11.060;2022-10-17T04:22:00;7.13;;;5.63;;
10902;SDS011;5504;47.312;11.060;2022-10-17T04:24:28;7.43;;;6.00;;
10902;SDS011;5504;47.312;11.060;2022-10-17T04:26:53;10.30;;;6.23;;
10902;SDS011;5504;47.312;11.060;2022-10-17T04:29:19;8.13;;;5.80;;
10902;SDS011;5504;47.312;11.060;2022-10-17T04:31:45;7.13;;;5.70;;
10902;SDS011;5504;47.312;11.060;2022-10-17T04:34:11;8.57;;;5.37;;
10902;SDS011;5504;47.312;11.060;2022-10-17T04:36:38;7.17;;;5.73;;
10902;SDS011;5504;47.312;11.060;2022-10-17T04:39:05;7.60;;;5.67;;
10902;SDS011;5504;47.312;11.060;2022-10-17T04:41:30;6.50;;;5.30;;
10902;SDS011;5504;47.312;11.060;2022-10-17T04:43:56;8.10;;;5.87;;
10902;SDS011;5504;47.312;11.060;2022-10-17T04:46:22;7.77;;;5.43;;
10902;SDS011;5504;47.312;11.060;2022-10-17T04:48:48;7.13;;;5.60;;
10902;SDS011;5504;47.312;11.060;2022-10-17T04:51:15;7.37;;;5.53;;
10902;SDS011;5504;47.312;11.060;2022-10-17T04:53:43;6.40;;;5.53;;
10902;SDS011;5504;47.312;11.060;2022-10-17T04:56:10;6.60;;;5.50;;
10902;SDS011;5504;47.312;11.060;2022-10-17T04:58:41;7.03;;;5.93;;
10902;SDS011;5504;47.312;11.060;2022-10-17T05:01:10;7.40;;;5.57;;
10902;SDS011;5504;47.312;11.060;2022-10-17T05:03:44;9.17;;;5.40;;
10902;SDS011;5504;47.312;11.060;2022-10-17T05:06:14;7.40;;;5.87;;
10902;SDS011;5504;47.312;11.060;2022-10-17T05:08:42;7.23;;;5.87;;
10902;SDS011;5504;47.312;11.060;2022-10-17T05:11:24;7.97;;;6.23;;
10902;SDS011;5504;47.312;11.060;2022-10-17T05:13:53;7.33;;;6.40;;
10902;SDS011;5504;47.312;11.060;2022-10-17T05:16:20;6.87;;;6.17;;
10902;SDS011;5504;47.312;11.060;2022-10-17T05:18:48;7.83;;;5.80;;
10902;SDS011;5504;47.312;11.060;2022-10-17T05:21:15;7.53;;;5.60;;
10902;SDS011;5504;47.312;11.060;2022-10-17T05:23:40;8.60;;;6.33;;
10902;SDS011;5504;47.312;11.060;2022-10-17T05:26:06;8.33;;;5.80;;
10902;SDS011;5504;47.312;11.060;2022-10-17T05:28:33;7.97;;;5.97;;
10902;SDS011;5504;47.312;11.060;2022-10-17T05:31:04;10.43;;;5.70;;
10902;SDS011;5504;47.312;11.060;2022-10-17T05:33:30;8.07;;;6.10;;
10902;SDS011;5504;47.312;11.060;2022-10-17T05:35:57;8.57;;;6.17;;
10902;SDS011;5504;47.312;11.060;2022-10-17T05:38:23;7.23;;;5.80;;
10902;SDS011;5504;47.312;11.060;2022-10-17T05:40:49;6.90;;;5.87;;
10902;SDS011;5504;47.312;11.060;2022-10-17T05:43:15;9.00;;;6.47;;
10902;SDS011;5504;47.312;11.060;2022-10-17T05:45:40;7.20;;;5.93;;
10902;SDS011;5504;47.312;11.060;2022-10-17T05:48:06;10.47;;;5.73;;
10902;SDS011;5504;47.312;11.060;2022-10-17T05:50:33;7.37;;;6.03;;
10902;SDS011;5504;47.312;11.060;2022-10-17T05:52:59;7.17;;;5.63;;
10902;SDS011;5504;47.312;11.060;2022-10-17T05:55:26;6.90;;;6.10;;
10902;SDS011;5504;47.312;11.060;2022-10-17T05:57:51;10.17;;;6.47;;
10902;SDS011;5504;47.312;11.060;2022-10-17T06:00:18;7.70;;;5.87;;
10902;SDS011;5504;47.312;11.060;2022-10-17T06:02:45;9.00;;;6.07;;
10902;SDS011;5504;47.312;11.060;2022-10-17T06:05:11;8.53;;;6.30;;
10902;SDS011;5504;47.312;11.060;2022-10-17T06:07:37;8.40;;;6.20;;
10902;SDS011;5504;47.312;11.060;2022-10-17T06:10:03;7.73;;;6.93;;
10902;SDS011;5504;47.312;11.060;2022-10-17T06:12:29;10.00;;;6.30;;
10902;SDS011;5504;47.312;11.060;2022-10-17T06:14:55;8.73;;;5.67;;
10902;SDS011;5504;47.312;11.060;2022-10-17T06:17:20;6.33;;;5.27;;
10902;SDS011;5504;47.312;11.060;2022-10-17T06:19:46;7.80;;;5.90;;
10902;SDS011;5504;47.312;11.060;2022-10-17T06:22:12;7.63;;;5.70;;
10902;SDS011;5504;47.312;11.060;2022-10-17T06:24:38;6.60;;;5.67;;
10902;SDS011;5504;47.312;11.060;2022-10-17T06:27:03;7.50;;;5.47;;
10902;SDS011;5504;47.312;11.060;2022-10-17T06:29:29;6.50;;;5.50;;
10902;SDS011;5504;47.312;11.060;2022-10-17T06:31:55;9.37;;;5.63;;
10902;SDS011;5504;47.312;11.060;2022-10-17T06:34:20;6.17;;;5.40;;
10902;SDS011;5504;47.312;11.060;2022-10-17T06:36:47;6.20;;;5.60;;
10902;SDS011;5504;47.312;11.060;2022-10-17T06:39:13;6.57;;;5.30;;
10902;SDS011;5504;47.312;11.060;2022-10-17T06:41:39;6.57;;;5.70;;
10902;SDS011;5504;47.312;11.060;2022-10-17T06:44:05;5.93;;;5.33;;
10902;SDS011;5504;47.312;11.060;2022-10-17T06:46:35;7.53;;;4.77;;
10902;SDS011;5504;47.312;11.060;2022-10-17T06:49:01;6.10;;;5.13;;
10902;SDS011;5504;47.312;11.060;2022-10-17T06:51:29;8.17;;;5.57;;
10902;SDS011;5504;47.312;11.060;2022-10-17T06:53:58;6.83;;;5.63;;
10902;SDS011;5504;47.312;11.060;2022-10-17T06:56:23;8.47;;;5.30;;
10902;SDS011;5504;47.312;11.060;2022-10-17T06:58:49;7.67;;;5.03;;
10902;SDS011;5504;47.312;11.060;2022-10-17T07:01:15;7.53;;;4.90;;
10902;SDS011;5504;47.312;11.060;2022-10-17T07:03:41;5.97;;;5.00;;
10902;SDS011;5504;47.312;11.060;2022-10-17T07:06:08;6.70;;;4.83;;
10902;SDS011;5504;47.312;11.060;2022-10-17T07:08:37;5.90;;;4.53;;
10902;SDS011;5504;47.312;11.060;2022-10-17T07:11:10;6.47;;;5.50;;
10902;SDS011;5504;47.312;11.060;2022-10-17T07:13:37;6.47;;;5.17;;
10902;SDS011;5504;47.312;11.060;2022-10-17T07:16:03;5.43;;;4.87;;
10902;SDS011;5504;47.312;11.060;2022-10-17T07:18:29;5.37;;;4.53;;
10902;SDS011;5504;47.312;11.060;2022-10-17T07:20:55;7.27;;;5.10;;
10902;SDS011;5504;47.312;11.060;2022-10-17T07:23:21;6.43;;;4.70;;
10902;SDS011;5504;47.312;11.060;2022-10-17T07:25:47;5.20;;;4.70;;
10902;SDS011;5504;47.312;11.060;2022-10-17T07:28:13;5.83;;;4.60;;
10902;SDS011;5504;47.312;11.060;2022-10-17T07:30:39;5.00;;;4.50;;
10902;SDS011;5504;47.312;11.060;2022-10-17T07:33:05;8.00;;;4.70;;
10902;SDS011;5504;47.312;11.060;2022-10-17T07:35:32;5.40;;;4.40;;
10902;SDS011;5504;47.312;11.060;2022-10-17T07:37:57;5.53;;;4.70;;
10902;SDS011;5504;47.312;11.060;2022-10-17T07:40:23;7.17;;;4.47;;
10902;SDS011;5504;47.312;11.060;2022-10-17T07:42:49;5.50;;;4.63;;
10902;SDS011;5504;47.312;11.060;2022-10-17T07:45:15;5.00;;;4.23;;
10902;SDS011;5504;47.312;11.060;2022-10-17T07:47:41;4.93;;;4.13;;
10902;SDS011;5504;47.312;11.060;2022-10-17T07:50:07;5.27;;;4.10;;
10902;SDS011;5504;47.312;11.060;2022-10-17T07:52:33;5.43;;;4.10;;
10902;SDS011;5504;47.312;11.060;2022-10-17T07:54:59;5.45;;;3.97;;
10902;SDS011;5504;47.312;11.060;2022-10-17T07:57:24;4.80;;;3.97;;
10902;SDS011;5504;47.312;11.060;2022-10-17T07:59:50;4.63;;;3.92;;
10902;SDS011;5504;47.312;11.060;2022-10-17T08:02:22;4.30;;;3.90;;
10902;SDS011;5504;47.312;11.060;2022-10-17T08:04:49;4.82;;;4.20;;
10902;SDS011;5504;47.312;11.060;2022-10-17T08:07:15;4.40;;;4.00;;
10902;SDS011;5504;47.312;11.060;2022-10-17T08:09:42;5.75;;;4.35;;
10902;SDS011;5504;47.312;11.060;2022-10-17T08:12:08;4.40;;;4.00;;
10902;SDS011;5504;47.312;11.060;2022-10-17T08:14:34;5.07;;;4.13;;
10902;SDS011;5504;47.312;11.060;2022-10-17T08:17:00;5.28;;;4.05;;
10902;SDS011;5504;47.312;11.060;2022-10-17T08:19:25;4.68;;;4.03;;
10902;SDS011;5504;47.312;11.060;2022-10-17T08:21:51;4.63;;;4.22;;
10902;SDS011;5504;47.312;11.060;2022-10-17T08:24:18;5.25;;;4.10;;
10902;SDS011;5504;47.312;11.060;2022-10-17T08:26:44;4.47;;;4.07;;
10902;SDS011;5504;47.312;11.060;2022-10-17T08:29:13;5.35;;;4.18;;
10902;SDS011;5504;47.312;11.060;2022-10-17T08:31:40;5.50;;;3.90;;
10902;SDS011;5504;47.312;11.060;2022-10-17T08:34:06;4.97;;;4.18;;
10902;SDS011;5504;47.312;11.060;2022-10-17T08:36:32;4.40;;;4.00;;
10902;SDS011;5504;47.312;11.060;2022-10-17T08:38:57;4.00;;;3.70;;
10902;SDS011;5504;47.312;11.060;2022-10-17T08:46:48;4.03;;;3.63;;
10902;SDS011;5504;47.312;11.060;2022-10-17T08:49:59;4.35;;;3.95;;
10902;SDS011;5504;47.312;11.060;2022-10-17T08:52:47;4.30;;;3.85;;
10902;SDS011;5504;47.312;11.060;2022-10-17T08:55:17;4.20;;;3.75;;
10902;SDS011;5504;47.312;11.060;2022-10-17T08:57:47;4.35;;;3.95;;
10902;SDS011;5504;47.312;11.060;2022-10-17T09:00:17;4.10;;;3.70;;
10902;SDS011;5504;47.312;11.060;2022-10-17T09:03:05;4.50;;;3.95;;
10902;SDS011;5504;47.312;11.060;2022-10-17T09:06:02;4.00;;;3.60;;
10902;SDS011;5504;47.312;11.060;2022-10-17T09:14:19;4.25;;;3.85;;
10902;SDS011;5504;47.312;11.060;2022-10-17T09:19:53;4.60;;;3.50;;
10902;SDS011;5504;47.312;11.060;2022-10-17T09:22:56;5.05;;;3.90;;
10902;SDS011;5504;47.312;11.060;2022-10-17T09:25:22;3.92;;;3.53;;
10902;SDS011;5504;47.312;11.060;2022-10-17T09:27:49;8.02;;;4.10;;
10902;SDS011;5504;47.312;11.060;2022-10-17T09:33:12;4.60;;;4.00;;
10902;SDS011;5504;47.312;11.060;2022-10-17T09:35:42;4.00;;;3.60;;
10902;SDS011;5504;47.312;11.060;2022-10-17T09:38:17;4.10;;;3.70;;
10902;SDS011;5504;47.312;11.060;2022-10-17T09:40:48;3.80;;;3.50;;
10902;SDS011;5504;47.312;11.060;2022-10-17T09:43:20;4.28;;;3.72;;
10902;SDS011;5504;47.312;11.060;2022-10-17T09:46:11;4.18;;;3.70;;
10902;SDS011;5504;47.312;11.060;2022-10-17T09:51:43;4.30;;;3.53;;
10902;SDS011;5504;47.312;11.060;2022-10-17T09:54:22;3.67;;;3.22;;
10902;SDS011;5504;47.312;11.060;2022-10-17T09:57:02;3.70;;;3.10;;
10902;SDS011;5504;47.312;11.060;2022-10-17T09:59:43;4.82;;;3.30;;
10902;SDS011;5504;47.312;11.060;2022-10-17T10:02:21;4.25;;;3.50;;
10902;SDS011;5504;47.312;11.060;2022-10-17T10:07:22;4.00;;;3.60;;
10902;SDS011;5504;47.312;11.060;2022-10-17T10:09:52;4.30;;;3.90;;
10902;SDS011;5504;47.312;11.060;2022-10-17T10:14:47;4.30;;;3.88;;
10902;SDS011;5504;47.312;11.060;2022-10-17T10:19:59;4.22;;;3.47;;
10902;SDS011;5504;47.312;11.060;2022-10-17T10:22:26;5.95;;;3.88;;
10902;SDS011;5504;47.312;11.060;2022-10-17T10:27:40;4.38;;;3.80;;
10902;SDS011;5504;47.312;11.060;2022-10-17T10:30:22;4.55;;;4.07;;
10902;SDS011;5504;47.312;11.060;2022-10-17T10:32:52;4.60;;;4.20;;
10902;SDS011;5504;47.312;11.060;2022-10-17T10:35:29;4.22;;;3.78;;
10902;SDS011;5504;47.312;11.060;2022-10-17T10:37:57;4.03;;;3.72;;
10902;SDS011;5504;47.312;11.060;2022-10-17T10:40:27;4.50;;;3.78;;
10902;SDS011;5504;47.312;11.060;2022-10-17T10:45:57;4.97;;;4.18;;
10902;SDS011;5504;47.312;11.060;2022-10-17T10:48:49;4.10;;;3.63;;
10902;SDS011;5504;47.312;11.060;2022-10-17T10:51:16;4.55;;;3.80;;
10902;SDS011;5504;47.312;11.060;2022-10-17T10:56:23;5.95;;;3.30;;
10902;SDS011;5504;47.312;11.060;2022-10-17T11:04:30;3.85;;;3.55;;
10902;SDS011;5504;47.312;11.060;2022-10-17T11:15:35;3.53;;;3.05;;
10902;SDS011;5504;47.312;11.060;2022-10-17T11:18:14;5.65;;;3.47;;
10902;SDS011;5504;47.312;11.060;2022-10-17T11:21:17;3.15;;;2.90;;
10902;SDS011;5504;47.312;11.060;2022-10-17T11:24:23;3.30;;;3.00;;
10902;SDS011;5504;47.312;11.060;2022-10-17T11:26:57;4.55;;;3.70;;
10902;SDS011;5504;47.312;11.060;2022-10-17T11:29:27;5.00;;;3.50;;
10902;SDS011;5504;47.312;11.060;2022-10-17T11:32:02;3.70;;;3.30;;
10902;SDS011;5504;47.312;11.060;2022-10-17T11:34:43;3.85;;;3.20;;
10902;SDS011;5504;47.312;11.060;2022-10-17T11:37:21;3.50;;;3.20;;
10902;SDS011;5504;47.312;11.060;2022-10-17T11:39:52;3.45;;;3.15;;
10902;SDS011;5504;47.312;11.060;2022-10-17T11:42:30;3.58;;;3.28;;
10902;SDS011;5504;47.312;11.060;2022-10-17T11:45:14;4.18;;;3.50;;
10902;SDS011;5504;47.312;11.060;2022-10-17T11:47:44;6.18;;;3.70;;
10902;SDS011;5504;47.312;11.060;2022-10-17T11:50:30;4.95;;;3.20;;
10902;SDS011;5504;47.312;11.060;2022-10-17T11:53:01;4.22;;;3.40;;
10902;SDS011;5504;47.312;11.060;2022-10-17T11:55:35;3.70;;;3.40;;
10902;SDS011;5504;47.312;11.060;2022-10-17T11:58:13;4.15;;;3.50;;
10902;SDS011;5504;47.312;11.060;2022-10-17T12:11:16;3.70;;;3.30;;
10902;SDS011;5504;47.312;11.060;2022-10-17T12:14:01;4.32;;;3.28;;
10902;SDS011;5504;47.312;11.060;2022-10-17T12:21:52;3.67;;;3.38;;
10902;SDS011;5504;47.312;11.060;2022-10-17T12:24:40;6.35;;;3.50;;
10902;SDS011;5504;47.312;11.060;2022-10-17T12:30:14;3.90;;;3.25;;
10902;SDS011;5504;47.312;11.060;2022-10-17T12:35:27;4.65;;;3.25;;
10902;SDS011;5504;47.312;11.060;2022-10-17T12:45:58;5.65;;;3.28;;
10902;SDS011;5504;47.312;11.060;2022-10-17T12:56:36;4.30;;;3.10;;
10902;SDS011;5504;47.312;11.060;2022-10-17T12:59:19;3.17;;;2.83;;
10902;SDS011;5504;47.312;11.060;2022-10-17T13:01:47;3.35;;;2.90;;
10902;SDS011;5504;47.312;11.060;2022-10-17T13:04:17;5.15;;;2.85;;
10902;SDS011;5504;47.312;11.060;2022-10-17T13:06:45;4.32;;;2.92;;
10902;SDS011;5504;47.312;11.060;2022-10-17T13:09:25;3.35;;;3.05;;
10902;SDS011;5504;47.312;11.060;2022-10-17T13:11:53;3.17;;;2.88;;
10902;SDS011;5504;47.312;11.060;2022-10-17T13:14:21;3.20;;;2.90;;
10902;SDS011;5504;47.312;11.060;2022-10-17T13:16:50;3.38;;;3.05;;
10902;SDS011;5504;47.312;11.060;2022-10-17T13:19:24;3.55;;;2.80;;
10902;SDS011;5504;47.312;11.060;2022-10-17T13:22:10;3.53;;;2.78;;
10902;SDS011;5504;47.312;11.060;2022-10-17T13:24:50;6.25;;;2.70;;
10902;SDS011;5504;47.312;11.060;2022-10-17T13:32:47;3.10;;;2.60;;
10902;SDS011;5504;47.312;11.060;2022-10-17T13:35:14;2.95;;;2.50;;
10902;SDS011;5504;47.312;11.060;2022-10-17T13:37:45;3.10;;;2.40;;
10902;SDS011;5504;47.312;11.060;2022-10-17T13:40:39;3.08;;;2.60;;
10902;SDS011;5504;47.312;11.060;2022-10-17T13:43:04;2.67;;;2.47;;
10902;SDS011;5504;47.312;11.060;2022-10-17T13:45:44;3.25;;;2.28;;
10902;SDS011;5504;47.312;11.060;2022-10-17T13:48:17;2.80;;;2.60;;
10902;SDS011;5504;47.312;11.060;2022-10-17T13:50:49;3.55;;;2.42;;
10902;SDS011;5504;47.312;11.060;2022-10-17T13:53:19;3.55;;;2.35;;
10902;SDS011;5504;47.312;11.060;2022-10-17T13:58:22;3.22;;;2.33;;
10902;SDS011;5504;47.312;11.060;2022-10-17T14:00:49;5.18;;;2.50;;
10902;SDS011;5504;47.312;11.060;2022-10-17T14:03:17;3.00;;;2.70;;
10902;SDS011;5504;47.312;11.060;2022-10-17T14:06:03;4.25;;;2.70;;
10902;SDS011;5504;47.312;11.060;2022-10-17T14:08:35;3.15;;;2.58;;
10902;SDS011;5504;47.312;11.060;2022-10-17T14:11:12;3.88;;;2.53;;
10902;SDS011;5504;47.312;11.060;2022-10-17T14:13:49;2.63;;;2.38;;
10902;SDS011;5504;47.312;11.060;2022-10-17T14:16:17;3.13;;;2.80;;
10902;SDS011;5504;47.312;11.060;2022-10-17T14:18:45;4.07;;;2.50;;
10902;SDS011;5504;47.312;11.060;2022-10-17T14:21:23;4.15;;;2.42;;
10902;SDS011;5504;47.312;11.060;2022-10-17T14:23:51;3.25;;;2.33;;
10902;SDS011;5504;47.312;11.060;2022-10-17T14:26:44;2.95;;;2.47;;
10902;SDS011;5504;47.312;11.060;2022-10-17T14:29:22;3.45;;;2.70;;
10902;SDS011;5504;47.312;11.060;2022-10-17T14:31:58;3.78;;;2.72;;
10902;SDS011;5504;47.312;11.060;2022-10-17T14:34:38;3.53;;;2.55;;
10902;SDS011;5504;47.312;11.060;2022-10-17T14:37:08;3.97;;;2.58;;
10902;SDS011;5504;47.312;11.060;2022-10-17T14:39:55;3.50;;;2.38;;
10902;SDS011;5504;47.312;11.060;2022-10-17T14:42:24;4.63;;;3.03;;
10902;SDS011;5504;47.312;11.060;2022-10-17T14:44:51;3.58;;;2.80;;
10902;SDS011;5504;47.312;11.060;2022-10-17T14:47:23;5.18;;;2.80;;
10902;SDS011;5504;47.312;11.060;2022-10-17T14:50:01;6.18;;;2.55;;
10902;SDS011;5504;47.312;11.060;2022-10-17T14:52:30;4.75;;;2.40;;
10902;SDS011;5504;47.312;11.060;2022-10-17T14:54:56;4.70;;;2.78;;
10902;SDS011;5504;47.312;11.060;2022-10-17T15:00:05;3.25;;;2.50;;
10902;SDS011;5504;47.312;11.060;2022-10-17T15:02:31;4.13;;;2.60;;
10902;SDS011;5504;47.312;11.060;2022-10-17T15:04:57;5.90;;;2.95;;
10902;SDS011;5504;47.312;11.060;2022-10-17T15:07:23;2.90;;;2.58;;
10902;SDS011;5504;47.312;11.060;2022-10-17T15:09:49;5.90;;;2.70;;
10902;SDS011;5504;47.312;11.060;2022-10-17T15:12:17;4.00;;;2.80;;
10902;SDS011;5504;47.312;11.060;2022-10-17T15:14:45;4.25;;;3.08;;
10902;SDS011;5504;47.312;11.060;2022-10-17T15:17:15;6.72;;;3.05;;
10902;SDS011;5504;47.312;11.060;2022-10-17T15:19:44;4.95;;;2.95;;
10902;SDS011;5504;47.312;11.060;2022-10-17T15:22:11;9.35;;;3.38;;
10902;SDS011;5504;47.312;11.060;2022-10-17T15:24:37;5.63;;;3.10;;
10902;SDS011;5504;47.312;11.060;2022-10-17T15:27:05;8.02;;;3.30;;
10902;SDS011;5504;47.312;11.060;2022-10-17T15:29:37;5.38;;;2.85;;
10902;SDS011;5504;47.312;11.060;2022-10-17T15:32:03;5.03;;;2.97;;
10902;SDS011;5504;47.312;11.060;2022-10-17T15:34:29;6.90;;;2.90;;
10902;SDS011;5504;47.312;11.060;2022-10-17T15:36:54;5.53;;;3.00;;
10902;SDS011;5504;47.312;11.060;2022-10-17T15:39:20;4.93;;;3.05;;
10902;SDS011;5504;47.312;11.060;2022-10-17T15:41:46;5.65;;;2.63;;
10902;SDS011;5504;47.312;11.060;2022-10-17T15:44:12;6.13;;;2.85;;
10902;SDS011;5504;47.312;11.060;2022-10-17T15:46:39;4.85;;;2.70;;
10902;SDS011;5504;47.312;11.060;2022-10-17T15:49:07;3.85;;;2.75;;
10902;SDS011;5504;47.312;11.060;2022-10-17T15:51:36;3.85;;;2.78;;
10902;SDS011;5504;47.312;11.060;2022-10-17T15:54:01;4.43;;;2.80;;
10902;SDS011;5504;47.312;11.060;2022-10-17T15:56:32;4.80;;;3.10;;
10902;SDS011;5504;47.312;11.060;2022-10-17T15:59:03;6.80;;;3.15;;
10902;SDS011;5504;47.312;11.060;2022-10-17T16:01:35;6.00;;;2.75;;
10902;SDS011;5504;47.312;11.060;2022-10-17T16:04:02;5.18;;;3.17;;
10902;SDS011;5504;47.312;11.060;2022-10-17T16:06:27;4.72;;;3.20;;
10902;SDS011;5504;47.312;11.060;2022-10-17T16:08:53;4.35;;;2.80;;
10902;SDS011;5504;47.312;11.060;2022-10-17T16:11:28;6.85;;;2.90;;
10902;SDS011;5504;47.312;11.060;2022-10-17T16:13:57;5.28;;;3.20;;
10902;SDS011;5504;47.312;11.060;2022-10-17T16:16:25;5.38;;;3.20;;
10902;SDS011;5504;47.312;11.060;2022-10-17T16:18:51;5.97;;;3.08;;
10902;SDS011;5504;47.312;11.060;2022-10-17T16:21:17;4.03;;;3.00;;
10902;SDS011;5504;47.312;11.060;2022-10-17T16:23:44;4.93;;;3.10;;
10902;SDS011;5504;47.312;11.060;2022-10-17T16:26:10;5.20;;;3.08;;
10902;SDS011;5504;47.312;11.060;2022-10-17T16:28:39;5.07;;;3.20;;
10902;SDS011;5504;47.312;11.060;2022-10-17T16:31:25;6.03;;;3.10;;
10902;SDS011;5504;47.312;11.060;2022-10-17T16:33:54;3.23;;;2.93;;
10902;SDS011;5504;47.312;11.060;2022-10-17T16:36:21;4.80;;;3.13;;
10902;SDS011;5504;47.312;11.060;2022-10-17T16:38:47;6.17;;;3.40;;
10902;SDS011;5504;47.312;11.060;2022-10-17T16:43:50;7.03;;;3.57;;
10902;SDS011;5504;47.312;11.060;2022-10-17T16:46:17;5.43;;;3.10;;
10902;SDS011;5504;47.312;11.060;2022-10-17T16:48:44;9.23;;;4.00;;
10902;SDS011;5504;47.312;11.060;2022-10-17T16:51:10;6.90;;;3.33;;
10902;SDS011;5504;47.312;11.060;2022-10-17T16:53:37;7.40;;;3.40;;
10902;SDS011;5504;47.312;11.060;2022-10-17T16:56:08;5.07;;;3.30;;
10902;SDS011;5504;47.312;11.060;2022-10-17T16:58:39;5.87;;;3.53;;
10902;SDS011;5504;47.312;11.060;2022-10-17T17:01:10;4.73;;;3.60;;
10902;SDS011;5504;47.312;11.060;2022-10-17T17:03:38;7.77;;;3.60;;
10902;SDS011;5504;47.312;11.060;2022-10-17T17:06:06;5.77;;;3.70;;
10902;SDS011;5504;47.312;11.060;2022-10-17T17:08:33;4.00;;;3.20;;
10902;SDS011;5504;47.312;11.060;2022-10-17T17:11:01;5.67;;;3.40;;
10902;SDS011;5504;47.312;11.060;2022-10-17T17:13:27;5.37;;;3.30;;
10902;SDS011;5504;47.312;11.060;2022-10-17T17:16:10;6.40;;;3.30;;
10902;SDS011;5504;47.312;11.060;2022-10-17T17:18:38;4.53;;;3.50;;
10902;SDS011;5504;47.312;11.060;2022-10-17T17:21:04;4.97;;;3.33;;